Time;durP1;ratioP1;P1;durP2;ratioP2;P2;SDS_P1;SDS_P2;PMS_P1;PMS_P2;Temp;Humidity;BMP_temperature;BMP_pressure;BME280_temperature;BME280_humidity;BME280_pressure;Samples;Min_cycle;Max_cycle;Signal;HPM_P1;HPM_P2
2024/02/01 00:00:40;;;;;;;;;49.75;38.50;;;;;1.88;59.76;102510.91;146634;572;45020;-66
2024/02/01 00:03:49;;;;;;;;;42.25;34.00;;;;;1.93;59.64;102522.56;146634;686;46017;-66
2024/02/01 00:06:55;;;;;;;;;37.50;33.75;;;;;1.98;59.54;102512.84;146629;637;45020;-67
2024/02/01 00:09:58;;;;;;;;;44.75;37.00;;;;;2.04;59.15;102517.00;146632;580;46012;-67
2024/02/01 00:13:12;;;;;;;;;41.75;35.50;;;;;2.07;58.89;102516.44;146631;671;46010;-67
2024/02/01 00:16:24;;;;;;;;;49.75;36.00;;;;;-1.12;57.79;101942.88;146630;568;45014;-66
2024/02/01 00:19:20;;;;;;;;;50.25;38.50;;;;;2.10;59.06;102511.69;146635;595;45031;-66
2024/02/01 00:22:16;;;;;;;;;58.75;44.50;;;;;2.10;58.82;102508.22;146633;650;45016;-65
2024/02/01 00:25:17;;;;;;;;;50.00;39.25;;;;;2.09;58.97;102509.88;146630;598;45011;-67
2024/02/01 00:28:21;;;;;;;;;43.25;35.25;;;;;2.09;58.51;102509.88;146629;602;46012;-67
2024/02/01 00:31:29;;;;;;;;;38.25;34.00;;;;;2.12;58.52;102510.22;146635;671;46010;-65
2024/02/01 00:34:50;;;;;;;;;36.00;34.00;;;;;2.12;59.06;102512.78;146632;584;46016;-65
2024/02/01 00:38:02;;;;;;;;;41.50;33.75;;;;;-1.18;58.71;101927.84;146633;627;45010;-65
2024/02/01 00:41:08;;;;;;;;;35.75;32.00;;;;;1.99;59.77;102507.87;146633;575;45914;-66
2024/02/01 00:44:10;;;;;;;;;33.75;32.00;;;;;1.88;58.98;102497.19;146634;619;45020;-68
2024/02/01 00:47:18;;;;;;;;;36.25;32.25;;;;;1.84;59.82;102507.09;146614;579;46013;-68
2024/02/01 00:50:25;;;;;;;;;42.00;36.25;;;;;1.86;58.95;102509.78;146612;579;46020;-68
2024/02/01 00:53:19;;;;;;;;;34.75;31.75;;;;;1.80;60.19;102512.56;146609;737;46012;-68
2024/02/01 00:56:21;;;;;;;;;33.75;29.25;;;;;1.75;59.41;102506.03;146613;574;46021;-67
2024/02/01 00:59:19;;;;;;;;;44.25;35.50;;;;;1.74;59.67;102495.59;146610;599;46016;-68
2024/02/01 01:02:36;;;;;;;;;35.00;27.25;;;;;1.76;59.90;102491.59;146610;592;46013;-69
2024/02/01 01:05:31;;;;;;;;;31.75;26.00;;;;;1.73;60.97;102492.13;146610;607;46016;-68
2024/02/01 01:08:31;;;;;;;;;30.00;26.75;;;;;1.68;61.04;102484.66;146607;569;46010;-68
2024/02/01 01:11:39;;;;;;;;;35.00;29.75;;;;;1.65;60.76;102477.56;146609;609;46016;-67
2024/02/01 01:14:42;;;;;;;;;31.00;25.50;;;;;1.66;61.10;102479.41;146613;593;46020;-66
2024/02/01 01:17:35;;;;;;;;;35.75;27.50;;;;;1.65;60.82;102472.44;146609;583;46013;-68
2024/02/01 01:20:30;;;;;;;;;33.00;27.50;;;;;1.70;60.25;102465.31;146614;600;46020;-68
2024/02/01 01:23:37;;;;;;;;;27.00;24.25;;;;;1.73;60.22;102465.66;146606;605;47012;-67
2024/02/01 01:26:33;;;;;;;;;25.25;21.75;;;;;1.76;60.26;102464.34;146613;722;46020;-67
2024/02/01 01:29:41;;;;;;;;;26.50;24.25;;;;;1.79;60.24;102461.25;146608;626;47012;-67
2024/02/01 01:32:41;;;;;;;;;26.00;20.75;;;;;1.85;59.24;102456.81;146612;565;47012;-66
2024/02/01 01:35:42;;;;;;;;;25.50;22.50;;;;;1.89;59.94;102453.87;146610;585;46016;-68
2024/02/01 01:39:09;;;;;;;;;24.75;17.50;;;;;-0.76;57.93;101959.00;146606;628;46020;-66
2024/02/01 01:42:21;;;;;;;;;24.75;21.25;;;;;2.06;58.43;102438.78;146611;720;46025;-66
2024/02/01 01:45:20;;;;;;;;;22.75;19.25;;;;;2.16;58.71;102435.59;146613;569;46020;-67
2024/02/01 01:48:18;;;;;;;;;23.25;22.75;;;;;2.25;58.06;102430.63;146610;581;46013;-67
2024/02/01 01:51:23;;;;;;;;;27.50;23.25;;;;;2.30;58.19;102420.13;146612;624;46010;-67
2024/02/01 01:54:35;;;;;;;;;22.00;18.25;;;;;2.41;57.71;102425.53;146610;673;46914;-68
2024/02/01 01:57:32;;;;;;;;;19.00;17.25;;;;;2.51;57.52;102424.16;146612;631;47010;-67
2024/02/01 02:00:44;;;;;;;;;21.75;17.50;;;;;-0.32;56.84;101896.91;146615;594;47012;-65
2024/02/01 02:03:58;;;;;;;;;22.50;21.50;;;;;2.56;56.98;102416.09;146616;598;46012;-69
2024/02/01 02:06:58;;;;;;;;;44.25;36.00;;;;;2.50;57.45;102421.44;146610;574;46016;-70
2024/02/01 02:10:10;;;;;;;;;;;;;;;;;;;;;
2024/02/01 02:13:06;;;;;;;;;24.50;18.00;;;;;2.30;57.88;102417.56;146611;577;46034;-67
2024/02/01 02:16:02;;;;;;;;;29.50;23.50;;;;;2.27;57.68;102411.19;146608;581;47010;-68
2024/02/01 02:19:05;;;;;;;;;40.00;30.75;;;;;2.27;57.61;102416.31;146608;632;46016;-65
2024/02/01 02:22:08;;;;;;;;;22.75;18.75;;;;;2.30;57.27;102409.87;146612;574;47012;-67
2024/02/01 02:25:13;;;;;;;;;22.25;19.50;;;;;2.27;58.69;102418.88;146612;604;46016;-67
2024/02/01 02:28:28;;;;;;;;;20.00;17.25;;;;;2.12;58.97;102415.53;146615;591;45020;-68
2024/02/01 02:31:25;;;;;;;;;25.50;21.25;;;;;2.00;58.62;102406.50;146610;602;46017;-69
2024/02/01 02:34:28;;;;;;;;;21.50;20.00;;;;;1.95;58.84;102410.16;146611;579;47010;-69
2024/02/01 02:37:25;;;;;;;;;28.25;27.00;;;;;1.91;59.02;102408.00;146612;608;46012;-68
2024/02/01 02:40:45;;;;;;;;;;;;;;;;;;;;;
2024/02/01 02:43:38;;;;;;;;;23.50;19.25;;;;;1.71;59.82;102406.66;146609;606;47016;-68
2024/02/01 02:46:40;;;;;;;;;35.25;28.75;;;;;1.69;60.21;102409.81;146614;569;46020;-69
2024/02/01 02:49:36;;;;;;;;;25.50;20.75;;;;;1.67;60.85;102404.50;146609;573;46014;-68
2024/02/01 02:52:37;;;;;;;;;29.75;24.00;;;;;1.62;60.80;102404.00;146613;602;46020;-68
2024/02/01 02:55:38;;;;;;;;;33.50;25.00;;;;;1.59;60.83;102407.84;146609;615;47016;-68
2024/02/01 02:58:31;;;;;;;;;21.25;18.00;;;;;1.54;60.43;102406.41;146614;641;46010;-68
2024/02/01 03:01:45;;;;;;;;;;;;;;;;;;;;;
2024/02/01 03:04:54;;;;;;;;;28.50;26.25;;;;;1.48;59.67;102405.69;146613;639;46020;-68
2024/02/01 03:07:57;;;;;;;;;27.50;24.00;;;;;1.41;60.62;102396.44;146608;565;46914;-69
2024/02/01 03:11:00;;;;;;;;;21.00;20.25;;;;;1.31;60.54;102397.03;146607;565;47020;-68
2024/02/01 03:14:11;;;;;;;;;23.00;19.00;;;;;1.20;60.49;102392.31;146609;632;46014;-67
2024/02/01 03:17:03;;;;;;;;;27.00;23.25;;;;;1.08;62.48;102391.81;146614;643;46010;-68
2024/02/01 03:19:59;;;;;;;;;28.25;23.75;;;;;0.98;63.09;102394.03;146612;602;46012;-68
2024/02/01 03:23:10;;;;;;;;;24.50;20.00;;;;;0.91;63.02;102394.97;146609;573;47020;-67
2024/02/01 03:26:05;;;;;;;;;30.50;28.75;;;;;0.86;63.96;102395.16;146611;599;46016;-68
2024/02/01 03:29:08;;;;;;;;;40.50;33.00;;;;;-1.01;62.72;102064.72;146614;566;46010;-68
2024/02/01 03:32:10;;;;;;;;;29.00;24.00;;;;;0.82;62.83;102385.34;146613;648;46012;-69
2024/02/01 03:35:09;;;;;;;;;29.25;23.50;;;;;0.91;63.33;102399.19;146615;601;46020;-68
2024/02/01 03:38:24;;;;;;;;;3.00;2.00;;;;;0.89;62.95;102396.44;146610;618;47016;-69
2024/02/01 03:41:23;;;;;;;;;29.25;25.75;;;;;0.88;63.84;102384.41;146614;571;46020;-69
2024/02/01 03:44:28;;;;;;;;;29.25;22.50;;;;;0.85;63.43;102389.16;146609;586;47012;-70
2024/02/01 03:47:30;;;;;;;;;22.25;18.25;;;;;0.83;63.46;102372.72;146614;564;46010;-73
2024/02/01 03:50:38;;;;;;;;;;;;;;;;;;;;;
2024/02/01 03:53:36;;;;;;;;;33.50;28.00;;;;;0.88;62.67;102380.94;146610;609;48021;-68
2024/02/01 03:56:40;;;;;;;;;30.00;25.75;;;;;0.87;62.69;102374.00;146608;599;47027;-68
2024/02/01 03:59:51;;;;;;;;;25.75;22.25;;;;;0.87;62.77;102376.56;146613;595;46021;-66
2024/02/01 04:03:13;;;;;;;;;23.75;19.00;;;;;0.85;61.98;102385.69;146610;634;46017;-67
2024/02/01 04:06:19;;;;;;;;;19.75;18.00;;;;;0.82;62.91;102383.69;146613;569;46010;-66
2024/02/01 04:09:20;;;;;;;;;18.75;17.25;;;;;0.77;63.20;102379.69;146610;593;46016;-66
2024/02/01 04:12:32;;;;;;;;;;;;;;;;;;;;;
2024/02/01 04:15:26;;;;;;;;;24.25;19.50;;;;;0.63;64.05;102374.62;146610;581;46017;-65
2024/02/01 04:18:21;;;;;;;;;25.50;22.50;;;;;0.57;64.17;102367.16;146611;776;47012;-67
2024/02/01 04:21:45;;;;;;;;;26.25;21.75;;;;;0.50;64.41;102367.19;146611;600;47015;-66
2024/02/01 04:24:39;;;;;;;;;22.00;20.25;;;;;0.42;64.47;102367.91;146612;662;46020;-66
2024/02/01 04:27:40;;;;;;;;;28.75;26.75;;;;;0.32;63.96;102373.56;146608;564;47016;-66
2024/02/01 04:30:57;;;;;;;;;22.25;18.25;;;;;-2.57;62.85;101864.75;146608;633;47010;-66
2024/02/01 04:33:57;;;;;;;;;19.50;17.25;;;;;0.28;64.42;102379.06;146608;607;46016;-66
2024/02/01 04:36:57;;;;;;;;;28.75;20.75;;;;;0.19;64.75;102367.75;146613;571;46020;-68
2024/02/01 04:40:16;;;;;;;;;26.50;21.00;;;;;0.20;63.45;102379.78;146611;602;46016;-69
2024/02/01 04:43:18;;;;;;;;;27.50;23.25;;;;;0.15;65.00;102384.31;146608;611;46020;-69
2024/02/01 04:46:27;;;;;;;;;;;;;;;;;;;;;
2024/02/01 04:49:39;;;;;;;;;24.25;20.00;;;;;-3.13;63.84;101802.03;146610;613;47020;-65
2024/02/01 04:52:38;;;;;;;;;24.75;22.50;;;;;0.12;64.52;102383.03;146609;582;46012;-65
2024/02/01 04:55:36;;;;;;;;;23.50;20.00;;;;;0.12;65.27;102378.84;146613;584;46010;-65
2024/02/01 04:58:42;;;;;;;;;25.50;24.00;;;;;0.13;65.49;102378.13;146611;683;46012;-66
2024/02/01 05:01:40;;;;;;;;;30.00;24.25;;;;;0.20;64.55;102378.13;146615;581;45021;-65
2024/02/01 05:04:35;;;;;;;;;31.25;24.25;;;;;0.27;64.68;102382.31;146607;587;47014;-64
2024/02/01 05:07:41;;;;;;;;;21.75;19.25;;;;;0.34;63.46;102378.84;146610;564;46021;-66
2024/02/01 05:10:43;;;;;;;;;23.75;20.25;;;;;0.40;63.83;102385.56;146610;600;46016;-66
2024/02/01 05:13:51;;;;;;;;;;;;;;;;;;;;;
2024/02/01 05:16:47;;;;;;;;;27.25;23.75;;;;;0.41;63.30;102389.97;146611;650;46016;-66
2024/02/01 05:19:49;;;;;;;;;29.50;23.00;;;;;0.41;63.33;102382.31;146611;621;46020;-67
2024/02/01 05:22:46;;;;;;;;;29.50;23.75;;;;;0.40;63.17;102383.03;146610;709;47017;-66
2024/02/01 05:25:41;;;;;;;;;37.75;31.25;;;;;0.40;63.48;102372.81;146614;617;46010;-66
2024/02/01 05:28:39;;;;;;;;;33.75;30.50;;;;;0.39;62.78;102371.00;146608;574;46013;-67
2024/02/01 05:31:34;;;;;;;;;27.00;24.25;;;;;0.40;63.79;102385.56;146612;617;46020;-67
2024/02/01 05:34:52;;;;;;;;;41.25;34.25;;;;;0.42;62.53;102376.47;146608;563;47012;-68
2024/02/01 05:37:46;;;;;;;;;36.00;32.25;;;;;0.42;63.47;102378.13;146607;639;48012;-68
2024/02/01 05:40:44;;;;;;;;;38.75;33.75;;;;;0.40;64.18;102384.66;146608;573;46016;-67
2024/02/01 05:43:36;;;;;;;;;32.75;28.50;;;;;0.35;64.01;102385.78;146606;569;46020;-67
2024/02/01 05:46:41;;;;;;;;;38.00;32.75;;;;;0.34;63.94;102379.75;146610;611;46012;-67
2024/02/01 05:49:56;;;;;;;;;42.00;36.25;;;;;0.36;64.45;102377.38;146613;659;46010;-67
2024/02/01 05:52:55;;;;;;;;;37.50;35.75;;;;;0.38;63.63;102379.41;146607;564;47012;-67
2024/02/01 05:55:56;;;;;;;;;32.25;28.00;;;;;0.40;63.84;102375.37;146614;786;46010;-68
2024/02/01 05:59:09;;;;;;;;;42.00;35.00;;;;;0.43;63.40;102377.38;146607;648;46914;-67
2024/02/01 06:02:19;;;;;;;;;;;;;;;;;;;;;
2024/02/01 06:05:21;;;;;;;;;33.50;27.75;;;;;0.43;64.32;102392.69;146611;564;46018;-66
2024/02/01 06:08:27;;;;;;;;;33.50;32.50;;;;;0.44;63.86;102391.97;146615;612;46010;-67
2024/02/01 06:11:26;;;;;;;;;32.25;30.50;;;;;0.52;64.96;102382.66;146610;577;47012;-67
2024/02/01 06:14:40;;;;;;;;;36.75;30.75;;;;;1.21;66.40;102378.78;146606;643;47011;-68
2024/02/01 06:17:40;;;;;;;;;39.75;32.00;;;;;2.61;66.46;102372.28;146613;721;46016;-69
2024/02/01 06:20:46;;;;;;;;;32.75;30.00;;;;;3.99;63.62;102378.38;146612;581;46020;-69
2024/02/01 06:24:04;;;;;;;;;51.25;41.75;;;;;2.63;58.10;101875.66;146609;636;46911;-66
2024/02/01 06:27:06;;;;;;;;;51.25;38.75;;;;;6.53;52.73;102364.94;146613;613;46020;-67
2024/02/01 06:30:02;;;;;;;;;43.25;36.00;;;;;7.39;49.41;102365.09;146603;574;46912;-68
2024/02/01 06:33:28;;;;;;;;;;;;;;;;;;;;;
2024/02/01 06:36:40;;;;;;;;;42.00;34.00;;;;;8.89;47.42;102372.16;146610;784;47012;-67
2024/02/01 06:39:43;;;;;;;;;60.25;45.50;;;;;9.44;45.14;102369.88;146611;571;47010;-68
2024/02/01 06:42:44;;;;;;;;;74.75;56.25;;;;;9.86;43.66;102406.91;146608;708;46017;-69
2024/02/01 06:49:18;;;;;;;;;51.50;41.50;;;;;10.56;44.20;102364.94;146610;664;46016;-68
2024/02/01 06:52:34;;;;;;;;;67.25;51.75;;;;;10.95;42.56;102369.69;146612;603;46010;-66
2024/02/01 06:55:54;;;;;;;;;60.75;48.25;;;;;11.45;43.10;102374.28;146609;689;47012;-69
2024/02/01 06:59:11;;;;;;;;;52.50;42.50;;;;;11.84;41.48;102359.78;146614;641;46021;-69
2024/02/01 07:12:18;;;;;;;;;55.25;44.50;;;;;12.85;39.09;102357.41;146609;576;47020;-68
2024/02/01 07:15:32;;;;;;;;;55.25;42.25;;;;;12.62;38.58;102360.16;146609;579;46913;-69
2024/02/01 07:22:32;;;;;;;;;50.75;39.75;;;;;11.29;39.05;102364.44;146607;603;47012;-67
2024/02/01 07:59:07;;;;;;;;;35.50;22.75;;;;;9.19;44.55;102347.91;146612;593;46029;-69
2024/02/01 08:09:11;;;;;;;;;32.25;30.00;;;;;9.21;43.91;102339.50;146609;601;47012;-68
2024/02/01 08:12:33;;;;;;;;;63.00;48.25;;;;;6.45;44.66;101866.94;146614;635;46013;-68
2024/02/01 08:15:31;;;;;;;;;38.50;33.00;;;;;9.18;44.54;102346.09;146609;686;46016;-69
2024/02/01 08:18:49;;;;;;;;;39.50;31.25;;;;;9.24;45.08;102342.34;146612;709;46010;-68
2024/02/01 08:21:47;;;;;;;;;41.25;31.75;;;;;9.48;44.71;102340.84;146610;573;46016;-67
2024/02/01 08:24:56;;;;;;;;;73.00;57.25;;;;;9.68;44.78;102332.09;146605;602;46020;-68
2024/02/01 08:28:05;;;;;;;;;;;;;;;;;;;;;
2024/02/01 08:31:14;;;;;;;;;39.00;32.50;;;;;9.93;44.01;102332.38;146615;577;46020;-69
2024/02/01 08:34:18;;;;;;;;;47.75;38.75;;;;;10.07;43.76;102335.16;146609;580;47013;-67
2024/02/01 08:37:32;;;;;;;;;30.75;27.75;;;;;10.16;43.08;102326.41;146612;573;47006;-68
2024/02/01 08:40:40;;;;;;;;;42.25;35.25;;;;;7.49;43.09;101853.22;146613;636;46031;-69
2024/02/01 08:43:50;;;;;;;;;32.25;29.25;;;;;10.16;43.13;102328.13;146612;636;47012;-69
2024/02/01 08:47:01;;;;;;;;;29.75;29.25;;;;;10.14;43.20;102329.66;146610;582;47016;-69
2024/02/01 08:49:57;;;;;;;;;34.75;30.00;;;;;10.20;42.68;102331.84;146613;610;46012;-67
2024/02/01 08:53:14;;;;;;;;;38.25;32.00;;;;;7.94;44.07;101919.69;146611;657;46915;-68
2024/02/01 08:56:22;;;;;;;;;35.25;28.00;;;;;10.25;43.37;102321.06;146605;698;47020;-68
2024/02/01 08:59:22;;;;;;;;;42.25;35.00;;;;;10.36;42.30;102330.59;146612;681;46016;-69
2024/02/01 09:02:25;;;;;;;;;32.25;29.00;;;;;10.36;42.59;102332.28;146610;625;47010;-70
2024/02/01 09:05:22;;;;;;;;;34.75;29.50;;;;;10.35;43.30;102327.91;146609;582;46017;-69
2024/02/01 09:08:39;;;;;;;;;31.50;28.75;;;;;9.20;43.87;102128.06;146612;573;46010;-68
2024/02/01 09:11:34;;;;;;;;;32.50;28.25;;;;;10.60;43.71;102322.91;146608;597;46035;-69
2024/02/01 09:14:35;;;;;;;;;29.75;28.00;;;;;10.74;43.38;102318.75;146611;623;46010;-68
2024/02/01 09:17:55;;;;;;;;;37.25;31.00;;;;;9.71;43.99;102112.16;146610;665;46016;-70
2024/02/01 09:21:04;;;;;;;;;39.25;33.50;;;;;8.57;43.85;101842.91;146613;576;46020;-68
2024/02/01 09:24:00;;;;;;;;;24.75;20.00;;;;;11.43;42.67;102292.72;146609;609;47014;-69
2024/02/01 09:27:00;;;;;;;;;29.00;23.50;;;;;11.58;41.26;102291.25;146605;613;46021;-68
2024/02/01 09:30:04;;;;;;;;;28.50;25.50;;;;;11.61;41.96;102285.38;146610;624;46016;-68
2024/02/01 09:33:04;;;;;;;;;31.50;28.00;;;;;11.56;40.50;102282.44;146610;690;47021;-68
2024/02/01 09:36:00;;;;;;;;;29.00;26.50;;;;;11.48;40.86;102279.28;146610;585;46016;-68
2024/02/01 09:38:59;;;;;;;;;30.00;27.25;;;;;11.48;41.81;102265.41;146609;643;46028;-68
2024/02/01 09:41:58;;;;;;;;;32.25;30.00;;;;;11.56;41.93;102265.16;146611;593;46017;-69
2024/02/01 09:44:50;;;;;;;;;28.75;24.00;;;;;11.64;40.92;102257.91;146612;624;46012;-69
2024/02/01 09:47:49;;;;;;;;;25.75;24.25;;;;;11.67;40.72;102244.22;146632;575;45912;-68
2024/02/01 09:50:45;;;;;;;;;28.50;23.75;;;;;11.74;40.85;102246.47;146633;576;45010;-67
2024/02/01 09:53:40;;;;;;;;;28.75;25.25;;;;;11.75;40.43;102249.19;146633;565;45012;-70
2024/02/01 09:56:43;;;;;;;;;28.25;25.75;;;;;11.74;40.64;102236.06;146627;593;45025;-68
2024/02/01 09:59:43;;;;;;;;;23.00;21.50;;;;;11.81;40.13;102238.34;146629;587;46928;-68
2024/02/01 10:02:40;;;;;;;;;23.25;20.50;;;;;11.90;40.38;102219.87;146632;603;46010;-68
2024/02/01 10:05:41;;;;;;;;;20.50;17.75;;;;;11.98;41.93;102221.34;146630;654;45913;-67
2024/02/01 10:08:53;;;;;;;;;;;;;;;;;;;;;
2024/02/01 10:11:57;;;;;;;;;34.25;29.50;;;;;12.34;41.00;102214.25;146634;646;45019;-67
2024/02/01 10:15:10;;;;;;;;;26.00;24.50;;;;;10.15;41.93;101763.84;146633;703;46010;-68
2024/02/01 10:18:07;;;;;;;;;28.25;26.00;;;;;12.90;39.20;102184.19;146630;570;45914;-68
2024/02/01 10:21:21;;;;;;;;;23.00;21.50;;;;;13.13;38.18;102188.28;146632;668;47010;-69
2024/02/01 10:24:20;;;;;;;;;23.50;20.00;;;;;13.24;37.38;102175.94;146635;573;45013;-69
2024/02/01 10:27:19;;;;;;;;;20.50;19.00;;;;;13.24;36.89;102169.81;146626;584;46022;-69
2024/02/01 10:30:19;;;;;;;;;26.50;23.75;;;;;13.22;37.54;102163.62;146632;616;45016;-69
2024/02/01 10:33:30;;;;;;;;;28.75;25.00;;;;;13.28;39.92;102164.06;146634;607;45031;-69
2024/02/01 10:36:39;;;;;;;;;19.00;17.00;;;;;13.39;38.09;102157.78;146632;598;45012;-68
2024/02/01 10:39:45;;;;;;;;;18.25;18.00;;;;;13.40;38.25;102155.28;146634;592;45044;-70
2024/02/01 10:42:39;;;;;;;;;23.00;19.25;;;;;13.42;36.79;102162.28;146631;646;46913;-69
2024/02/01 10:45:43;;;;;;;;;24.00;21.00;;;;;13.43;36.21;102138.03;146632;641;46010;-68
2024/02/01 10:48:57;;;;;;;;;29.00;24.25;;;;;13.52;36.30;102144.75;146611;577;47012;-68
2024/02/01 10:52:00;;;;;;;;;25.00;22.00;;;;;13.66;37.54;102135.16;146613;563;45582;-70
2024/02/01 10:54:54;;;;;;;;;22.75;19.00;;;;;13.78;34.90;102132.41;146607;750;47012;-67
2024/02/01 10:58:00;;;;;;;;;32.75;28.25;;;;;13.81;35.77;102124.75;146609;579;46010;-69
2024/02/01 11:01:12;;;;;;;;;28.25;21.50;;;;;13.84;36.26;102118.03;146608;569;46017;-68
2024/02/01 11:04:11;;;;;;;;;23.00;19.25;;;;;13.95;35.58;102108.22;146612;606;46012;-68
2024/02/01 11:07:06;;;;;;;;;22.75;19.00;;;;;13.97;34.57;102098.78;146610;607;47012;-68
2024/02/01 11:10:12;;;;;;;;;20.00;18.75;;;;;13.99;35.12;102098.91;146611;606;46021;-68
2024/02/01 11:13:24;;;;;;;;;23.75;21.75;;;;;14.07;35.52;102089.78;146609;760;46016;-69
2024/02/01 11:16:25;;;;;;;;;25.25;22.75;;;;;14.21;35.81;102083.69;146612;585;46020;-68
2024/02/01 11:19:40;;;;;;;;;19.50;17.25;;;;;12.09;35.49;101679.62;146610;740;46016;-68
2024/02/01 11:22:35;;;;;;;;;23.75;20.25;;;;;14.37;35.18;102075.03;146618;584;46029;-68
2024/02/01 11:25:48;;;;;;;;;18.00;16.25;;;;;14.35;34.06;102068.81;146611;644;47014;-68
2024/02/01 11:28:46;;;;;;;;;18.00;16.50;;;;;14.31;34.15;102064.25;146607;607;46020;-69
2024/02/01 11:32:06;;;;;;;;;27.25;24.00;;;;;14.23;33.49;102060.28;146607;609;46916;-69
2024/02/01 11:35:21;;;;;;;;;20.50;19.00;;;;;14.22;36.63;102054.16;146614;598;46020;-67
2024/02/01 11:38:20;;;;;;;;;19.25;17.50;;;;;14.25;33.15;102056.97;146608;604;46017;-67
2024/02/01 11:41:13;;;;;;;;;19.25;17.50;;;;;14.25;33.06;102046.53;146616;634;47012;-69
2024/02/01 11:44:33;;;;;;;;;20.00;17.50;;;;;14.26;35.13;102037.88;146610;588;47029;-69
2024/02/01 11:47:35;;;;;;;;;21.50;18.25;;;;;14.35;34.08;102037.50;146613;570;46021;-67
2024/02/01 11:50:42;;;;;;;;;27.75;25.50;;;;;14.50;34.51;102025.31;146609;657;47012;-67
2024/02/01 11:53:40;;;;;;;;;21.25;20.25;;;;;14.73;33.35;102012.66;146614;607;46010;-68
2024/02/01 11:56:38;;;;;;;;;25.25;23.75;;;;;14.88;32.82;102007.41;146612;642;47014;-67
2024/02/01 11:59:32;;;;;;;;;18.25;17.00;;;;;15.02;32.49;102011.66;146605;573;46020;-67
2024/02/01 12:02:41;;;;;;;;;18.00;13.25;;;;;15.15;31.53;101997.53;146614;615;46016;-69
2024/02/01 12:05:49;;;;;;;;;27.50;22.25;;;;;15.30;30.96;102000.06;146613;621;46010;-68
2024/02/01 12:09:03;;;;;;;;;16.00;14.25;;;;;15.32;30.04;101990.56;146607;592;47012;-68
2024/02/01 12:12:04;;;;;;;;;22.25;15.50;;;;;15.35;29.79;101986.37;146610;585;47020;-68
2024/02/01 12:14:57;;;;;;;;;18.00;16.25;;;;;15.43;30.67;101973.75;146608;577;46016;-68
2024/02/01 12:17:58;;;;;;;;;11.25;10.75;;;;;14.63;29.06;101815.50;146614;567;46010;-69
2024/02/01 12:20:53;;;;;;;;;11.50;11.50;;;;;15.51;29.74;101958.44;146613;631;46016;-68
2024/02/01 12:23:52;;;;;;;;;17.25;14.50;;;;;15.43;27.72;101961.56;146616;569;47010;-66
2024/02/01 12:26:52;;;;;;;;;14.50;12.00;;;;;15.44;30.13;101959.84;146613;616;46016;-68
2024/02/01 12:29:48;;;;;;;;;25.75;21.00;;;;;14.48;30.33;101772.91;146608;579;46011;-69
2024/02/01 12:32:48;;;;;;;;;20.25;17.75;;;;;15.71;30.85;101960.38;146612;563;46016;-69
2024/02/01 12:35:48;;;;;;;;;17.75;15.50;;;;;15.84;28.60;101946.19;146613;611;47010;-68
2024/02/01 12:38:44;;;;;;;;;17.50;15.00;;;;;15.84;29.01;101948.81;146609;669;46016;-68
2024/02/01 12:41:54;;;;;;;;;28.25;26.75;;;;;15.90;32.42;101946.50;146612;604;49010;-67
2024/02/01 12:44:51;;;;;;;;;23.50;21.50;;;;;15.95;30.33;101947.63;146608;656;47013;-68
2024/02/01 12:47:54;;;;;;;;;21.00;19.00;;;;;15.99;30.11;101941.72;146633;636;46010;-72
2024/02/01 12:50:47;;;;;;;;;17.00;16.50;;;;;16.03;28.88;101943.66;146633;610;45033;-67
2024/02/01 12:54:08;;;;;;;;;24.75;20.50;;;;;15.27;28.99;101788.25;146635;646;45011;-68
2024/02/01 12:57:04;;;;;;;;;29.25;26.25;;;;;16.15;29.93;101923.31;146633;605;45035;-67
2024/02/01 13:00:11;;;;;;;;;24.25;19.25;;;;;16.33;28.30;101927.63;146634;590;45010;-68
2024/02/01 13:03:28;;;;;;;;;15.00;13.50;;;;;16.08;27.58;101842.75;146632;638;45034;-70
2024/02/01 13:06:32;;;;;;;;;14.00;13.00;;;;;16.54;28.18;101918.16;146631;580;46030;-69
2024/02/01 13:09:43;;;;;;;;;;;;;;;;;;;;;
2024/02/01 13:12:54;;;;;;;;;20.00;16.25;;;;;16.65;27.88;101910.78;146634;575;45050;-69
2024/02/01 13:15:52;;;;;;;;;20.00;20.00;;;;;16.72;27.85;101906.69;146633;569;46013;-69
2024/02/01 13:19:04;;;;;;;;;;;;;;;;;;;;;
2024/02/01 13:22:27;;;;;;;;;15.50;11.75;;;;;16.94;29.66;101899.00;146631;566;46016;-67
2024/02/01 13:25:21;;;;;;;;;34.00;29.50;;;;;17.03;27.44;101888.91;146632;626;46010;-70
2024/02/01 13:28:19;;;;;;;;;34.25;29.50;;;;;17.03;28.64;101886.31;146628;595;46012;-69
2024/02/01 13:31:20;;;;;;;;;28.25;24.25;;;;;17.16;28.95;101900.81;146633;672;45021;-69
2024/02/01 13:34:22;;;;;;;;;15.75;13.00;;;;;17.35;27.91;101894.63;146634;617;45016;-68
2024/02/01 13:37:17;;;;;;;;;14.00;13.00;;;;;17.49;27.68;101890.00;146634;658;45020;-69
2024/02/01 13:40:23;;;;;;;;;11.75;11.75;;;;;17.57;26.58;101885.06;146628;574;46014;-68
2024/02/01 13:43:17;;;;;;;;;18.75;17.25;;;;;17.59;27.71;101876.41;146633;654;45010;-67
2024/02/01 13:46:27;;;;;;;;;13.50;10.25;;;;;17.70;29.75;101880.38;146625;641;47012;-67
2024/02/01 13:49:26;;;;;;;;;23.25;20.25;;;;;17.81;28.44;101886.09;146613;598;46010;-68
2024/02/01 13:52:20;;;;;;;;;12.25;12.00;;;;;17.93;27.69;101885.69;146611;646;46029;-68
2024/02/01 13:55:21;;;;;;;;;20.00;17.50;;;;;17.99;28.39;101878.94;146617;570;47010;-70
2024/02/01 13:58:29;;;;;;;;;23.25;21.75;;;;;17.92;28.53;101870.78;146608;615;46034;-70
2024/02/01 14:01:22;;;;;;;;;26.75;22.25;;;;;17.75;28.31;101870.06;146606;567;46021;-70
2024/02/01 14:04:22;;;;;;;;;20.00;18.00;;;;;17.61;27.95;101866.91;146611;635;46016;-69
2024/02/01 14:07:22;;;;;;;;;19.50;17.50;;;;;17.47;29.50;101865.44;146612;669;46011;-69
2024/02/01 14:10:23;;;;;;;;;23.25;23.00;;;;;17.24;30.02;101862.75;146612;628;46016;-69
2024/02/01 14:13:22;;;;;;;;;26.00;23.00;;;;;17.08;29.76;101857.69;146612;613;47020;-68
2024/02/01 14:16:27;;;;;;;;;40.25;33.00;;;;;16.99;29.15;101859.91;146609;726;46012;-70
2024/02/01 14:19:28;;;;;;;;;42.50;32.50;;;;;16.96;30.09;101860.66;146609;590;47010;-69
2024/02/01 14:22:33;;;;;;;;;29.50;26.50;;;;;16.88;29.58;101856.81;146607;708;46016;-69
2024/02/01 14:25:33;;;;;;;;;33.00;29.75;;;;;16.73;29.89;101858.72;146613;717;47010;-68
2024/02/01 14:28:25;;;;;;;;;29.50;27.25;;;;;16.48;30.09;101859.34;146606;568;46016;-69
2024/02/01 14:31:22;;;;;;;;;42.00;32.50;;;;;16.15;31.18;101852.66;146607;590;46021;-68
2024/02/01 14:34:20;;;;;;;;;33.75;29.25;;;;;15.85;31.22;101853.81;146608;636;47012;-68
2024/02/01 14:37:38;;;;;;;;;33.00;29.50;;;;;13.49;34.31;101482.72;146612;606;47010;-69
2024/02/01 14:40:46;;;;;;;;;35.25;29.75;;;;;15.36;32.86;101846.19;146609;650;46915;-68
2024/02/01 14:43:50;;;;;;;;;18.50;17.50;;;;;15.12;31.63;101849.34;146611;605;47011;-68
2024/02/01 14:46:42;;;;;;;;;32.75;29.00;;;;;14.91;32.67;101845.66;146613;601;46021;-70
2024/02/01 14:49:38;;;;;;;;;24.75;22.75;;;;;14.72;33.17;101839.47;146615;630;46020;-68
2024/02/01 14:52:36;;;;;;;;;33.50;30.50;;;;;14.51;33.39;101838.34;146612;581;46017;-68
2024/02/01 14:55:44;;;;;;;;;;;;;;;;;;;;;
2024/02/01 14:58:37;;;;;;;;;43.50;35.50;;;;;13.95;33.83;101836.13;146609;596;47016;-70
2024/02/01 15:01:40;;;;;;;;;36.75;32.00;;;;;13.76;34.32;101831.59;146605;575;46020;-69
2024/02/01 15:04:37;;;;;;;;;31.25;29.00;;;;;13.55;34.86;101837.44;146610;571;46016;-69
2024/02/01 15:07:35;;;;;;;;;45.25;34.50;;;;;13.36;35.38;101835.47;146613;622;46021;-68
2024/02/01 15:10:28;;;;;;;;;42.25;32.25;;;;;13.23;35.31;101830.31;146608;585;46911;-69
2024/02/01 15:13:24;;;;;;;;;44.50;35.50;;;;;13.16;36.34;101834.28;146612;594;46010;-69
2024/02/01 15:16:23;;;;;;;;;26.75;24.00;;;;;13.08;36.07;101824.22;146607;569;47014;-70
2024/02/01 15:19:20;;;;;;;;;46.75;37.25;;;;;12.99;36.74;101813.25;146611;578;46010;-68